Time;durP1;ratioP1;P1;durP2;ratioP2;P2;SDS_P1;SDS_P2;PMS_P1;PMS_P2;Temp;Humidity;BMP_temperature;BMP_pressure;BME280_temperature;BME280_humidity;BME280_pressure;Samples;Min_cycle;Max_cycle;Signal;HPM_P1;HPM_P2
2022/10/19 00:12:11;;;;;;;13.03;5.40;;;11.50;1.00;;;;;;6222707;23;20404;-88
2022/10/19 00:18:02;;;;;;;;;;;;;;;;;;;;;
2022/10/19 00:20:39;;;;;;;14.07;6.00;;;11.40;1.00;;;;;;6244021;22;20471;-88
2022/10/19 00:23:42;;;;;;;;;;;;;;;;;;;;;
2022/10/19 00:26:38;;;;;;;;;;;;;;;;;;;;;
2022/10/19 00:29:07;;;;;;;11.23;6.60;;;11.30;1.00;;;;;;6243480;22;20467;-88
2022/10/19 00:31:35;;;;;;;13.30;6.23;;;11.30;1.00;;;;;;6243167;23;20910;-88
2022/10/19 00:34:08;;;;;;;12.67;6.50;;;11.30;1.00;;;;;;6215022;23;20384;-88
2022/10/19 00:36:51;;;;;;;;;;;;;;;;;;;;;
2022/10/19 00:46:41;;;;;;;13.27;6.90;;;11.20;23.60;;;;;;6221851;23;20414;-87
2022/10/19 00:53:24;;;;;;;13.77;7.90;;;11.10;63.90;;;;;;6221901;23;20441;-88
2022/10/19 00:56:38;;;;;;;15.73;6.20;;;11.10;56.90;;;;;;6203729;23;20419;-88
2022/10/19 00:59:33;;;;;;;11.87;6.00;;;11.10;95.30;;;;;;6242827;22;20396;-88
2022/10/19 01:02:28;;;;;;;;;;;;;;;;;;;;;
2022/10/19 01:05:53;;;;;;;;;;;;;;;;;;;;;
2022/10/19 01:14:49;;;;;;;15.63;6.60;;;11.00;99.90;;;;;;6217410;23;20383;-87
2022/10/19 01:17:21;;;;;;;12.00;8.07;;;11.00;99.90;;;;;;6244304;23;20400;-88
2022/10/19 01:20:23;;;;;;;10.53;7.03;;;10.90;99.90;;;;;;6244248;22;20383;-87
2022/10/19 01:23:10;;;;;;;9.80;6.77;;;10.90;99.90;;;;;;6244346;23;20405;-88
2022/10/19 01:26:07;;;;;;;15.17;6.63;;;10.90;99.90;;;;;;6244487;23;20361;-88
2022/10/19 01:29:12;;;;;;;12.20;6.80;;;10.90;99.90;;;;;;6242262;22;20395;-87
2022/10/19 01:32:20;;;;;;;8.90;6.10;;;10.80;99.90;;;;;;6244260;23;20363;-88
2022/10/19 01:34:58;;;;;;;14.63;6.30;;;10.80;99.90;;;;;;6177016;23;20387;-87
2022/10/19 01:37:47;;;;;;;17.77;5.97;;;10.80;99.90;;;;;;6243927;23;20348;-87
2022/10/19 01:40:24;;;;;;;18.27;7.00;;;10.70;99.90;;;;;;6244231;22;20387;-88
2022/10/19 01:43:12;;;;;;;11.23;7.10;;;10.70;99.90;;;;;;6217356;23;20951;-88
2022/10/19 01:45:49;;;;;;;9.50;6.63;;;10.70;99.90;;;;;;6244689;23;20399;-88
2022/10/19 01:48:20;;;;;;;10.17;6.43;;;10.70;99.90;;;;;;6245923;23;20818;-88
2022/10/19 01:51:03;;;;;;;12.73;6.50;;;10.70;99.90;;;;;;6219900;23;20411;-87
2022/10/19 01:53:33;;;;;;;12.47;6.30;;;10.70;99.90;;;;;;6219226;23;20375;-88
2022/10/19 01:56:02;;;;;;;14.80;5.97;;;10.60;99.90;;;;;;6246349;23;20379;-88
2022/10/19 01:58:33;;;;;;;14.13;6.10;;;10.60;99.90;;;;;;6245648;23;20729;-87
2022/10/19 02:01:03;;;;;;;9.00;5.57;;;10.60;99.90;;;;;;6220389;23;20451;-86
2022/10/19 02:03:29;;;;;;;16.67;7.20;;;10.60;99.90;;;;;;6258187;23;20419;-88
2022/10/19 02:05:56;;;;;;;12.83;6.40;;;10.60;99.90;;;;;;6243210;23;20445;-87
2022/10/19 02:08:33;;;;;;;19.23;7.93;;;10.60;99.90;;;;;;6259791;23;20419;-87
2022/10/19 02:11:02;;;;;;;11.20;6.60;;;10.50;99.90;;;;;;6245603;23;20368;-88
2022/10/19 02:13:34;;;;;;;13.03;5.87;;;10.50;99.90;;;;;;6217724;23;20545;-87
2022/10/19 02:16:05;;;;;;;12.97;6.70;;;10.50;99.90;;;;;;6217929;23;20438;-88
2022/10/19 02:18:35;;;;;;;14.03;6.37;;;10.50;99.90;;;;;;6244476;23;20459;-88
2022/10/19 02:21:03;;;;;;;17.17;6.57;;;10.40;99.90;;;;;;6244679;23;20372;-88
2022/10/19 02:23:28;;;;;;;12.73;6.87;;;10.40;99.90;;;;;;6243792;23;20382;-88
2022/10/19 02:25:57;;;;;;;11.60;5.57;;;10.40;99.90;;;;;;6244445;23;20830;-89
2022/10/19 02:28:26;;;;;;;10.13;5.90;;;10.40;99.90;;;;;;6244353;23;20249;-88
2022/10/19 02:30:52;;;;;;;11.50;5.77;;;10.40;99.90;;;;;;6218392;23;20978;-88
2022/10/19 02:33:18;;;;;;;15.70;6.07;;;10.40;99.90;;;;;;6218063;23;20424;-87
2022/10/19 02:35:43;;;;;;;11.13;5.70;;;10.40;99.90;;;;;;6244556;23;20191;-87
2022/10/19 02:38:33;;;;;;;12.03;6.33;;;10.30;99.90;;;;;;6244761;23;20186;-87
2022/10/19 02:41:23;;;;;;;18.93;5.87;;;10.30;99.90;;;;;;6242399;23;20153;-87
2022/10/19 02:43:56;;;;;;;14.73;6.70;;;10.30;99.90;;;;;;6243686;23;20392;-87
2022/10/19 02:46:35;;;;;;;12.63;6.20;;;10.30;99.90;;;;;;6245000;23;20443;-88
2022/10/19 02:49:02;;;;;;;9.13;6.13;;;10.30;99.90;;;;;;6218005;23;20415;-87
2022/10/19 02:51:36;;;;;;;15.37;6.27;;;10.20;99.90;;;;;;6217235;23;20384;-88
2022/10/19 02:54:04;;;;;;;11.53;5.30;;;10.20;99.90;;;;;;6244554;23;20411;-87
2022/10/19 02:56:30;;;;;;;11.20;6.27;;;10.20;99.90;;;;;;6243522;23;20388;-88
2022/10/19 02:58:55;;;;;;;10.90;5.77;;;10.20;99.90;;;;;;6244078;22;20724;-87
2022/10/19 03:01:21;;;;;;;12.57;5.77;;;10.20;99.90;;;;;;6217479;23;20211;-88
2022/10/19 03:03:46;;;;;;;9.00;6.57;;;10.10;99.90;;;;;;6245006;23;20161;-88
2022/10/19 03:06:14;;;;;;;9.60;5.77;;;10.10;99.90;;;;;;6216768;23;20220;-88
2022/10/19 03:08:40;;;;;;;10.47;6.30;;;10.10;99.90;;;;;;6244928;22;20630;-87
2022/10/19 03:11:08;;;;;;;10.20;5.27;;;10.10;99.90;;;;;;6245334;23;20379;-88
2022/10/19 03:13:34;;;;;;;11.70;6.30;;;10.10;99.90;;;;;;6245410;23;20310;-87
2022/10/19 03:16:12;;;;;;;10.50;6.20;;;10.00;99.90;;;;;;6245673;23;20430;-88
2022/10/19 03:18:38;;;;;;;11.70;6.30;;;10.00;99.90;;;;;;6217848;22;20160;-87
2022/10/19 03:21:06;;;;;;;11.27;6.00;;;10.00;99.90;;;;;;6218842;23;20742;-87
2022/10/19 03:23:33;;;;;;;12.03;5.70;;;10.00;99.90;;;;;;6245251;23;20161;-87
2022/10/19 03:25:58;;;;;;;8.80;5.63;;;9.90;99.90;;;;;;6245564;23;20380;-87
2022/10/19 03:28:24;;;;;;;16.90;6.07;;;9.90;99.90;;;;;;6217481;23;20457;-87
2022/10/19 03:30:49;;;;;;;11.53;6.47;;;9.90;99.90;;;;;;6245801;22;20283;-87
2022/10/19 03:33:15;;;;;;;7.07;6.23;;;9.80;99.90;;;;;;6244866;23;20575;-86
2022/10/19 03:35:40;;;;;;;12.77;7.60;;;9.80;99.90;;;;;;6244959;23;20267;-87
2022/10/19 03:38:05;;;;;;;9.40;6.73;;;9.80;99.90;;;;;;6244565;23;20271;-87
2022/10/19 03:40:31;;;;;;;11.80;7.03;;;9.80;99.90;;;;;;6245455;22;20698;-87
2022/10/19 03:42:57;;;;;;;15.10;6.63;;;9.80;99.90;;;;;;6245306;23;20159;-85
2022/10/19 03:45:22;;;;;;;12.67;7.10;;;9.80;99.90;;;;;;6218658;23;20153;-87
2022/10/19 03:47:49;;;;;;;13.80;7.20;;;9.80;99.90;;;;;;6245035;23;20153;-87
2022/10/19 03:50:15;;;;;;;17.37;7.60;;;9.70;99.90;;;;;;6218661;23;20180;-86
2022/10/19 03:52:41;;;;;;;10.67;7.43;;;9.70;99.90;;;;;;6245092;23;20372;-87
2022/10/19 03:55:10;;;;;;;13.03;6.90;;;9.70;99.90;;;;;;6244779;23;20430;-87
2022/10/19 03:57:36;;;;;;;16.33;8.17;;;9.70;99.90;;;;;;6244632;23;20848;-86
2022/10/19 04:00:03;;;;;;;16.93;7.60;;;9.70;99.90;;;;;;6218235;23;20414;-87
2022/10/19 04:02:31;;;;;;;14.30;7.50;;;9.60;99.90;;;;;;6244770;23;20379;-87
2022/10/19 04:04:57;;;;;;;11.27;7.83;;;9.60;99.90;;;;;;6245450;23;20380;-87
2022/10/19 04:07:22;;;;;;;19.20;8.30;;;9.60;99.90;;;;;;6243968;23;20621;-86
2022/10/19 04:09:48;;;;;;;11.30;8.30;;;9.60;99.90;;;;;;6244027;22;20184;-87
2022/10/19 04:12:13;;;;;;;20.93;8.63;;;9.60;99.90;;;;;;6215954;23;20212;-87
2022/10/19 04:14:39;;;;;;;18.30;8.07;;;9.60;1.00;;;;;;6217172;23;20177;-87
2022/10/19 04:17:04;;;;;;;11.20;8.67;;;9.50;1.00;;;;;;6216644;23;20265;-88
2022/10/19 04:19:30;;;;;;;14.20;8.20;;;9.50;1.00;;;;;;6217091;23;20164;-86
2022/10/19 04:21:56;;;;;;;12.90;8.00;;;9.50;1.00;;;;;;6217532;23;20240;-87
2022/10/19 04:24:22;;;;;;;19.50;8.07;;;9.50;1.00;;;;;;6216631;23;20391;-87
2022/10/19 04:26:53;;;;;;;14.63;8.77;;;9.50;1.00;;;;;;6245862;23;20408;-87
2022/10/19 04:29:23;;;;;;;19.83;9.17;;;9.50;1.00;;;;;;6243275;22;20919;-87
2022/10/19 04:31:50;;;;;;;16.73;7.90;;;9.50;1.00;;;;;;6244292;23;20410;-87
2022/10/19 04:34:16;;;;;;;18.17;8.27;;;9.50;1.00;;;;;;6245585;23;20423;-86
2022/10/19 04:36:42;;;;;;;23.73;9.00;;;9.40;1.00;;;;;;6244524;23;20410;-87
2022/10/19 04:39:08;;;;;;;15.57;8.20;;;9.40;1.00;;;;;;6217463;23;20414;-86
2022/10/19 04:41:37;;;;;;;16.70;8.40;;;9.40;1.00;;;;;;6244238;23;20153;-87
2022/10/19 04:44:05;;;;;;;15.60;9.33;;;9.40;1.00;;;;;;6243174;23;20232;-87
2022/10/19 04:46:30;;;;;;;15.60;8.90;;;9.40;1.00;;;;;;6215036;23;20419;-86
2022/10/19 04:48:58;;;;;;;20.03;9.40;;;9.30;1.00;;;;;;6243139;22;20414;-87
2022/10/19 04:51:24;;;;;;;20.60;10.00;;;9.40;1.00;;;;;;6217485;23;20157;-87
2022/10/19 04:53:50;;;;;;;17.53;8.67;;;9.30;1.00;;;;;;6244252;23;20426;-87
2022/10/19 04:56:26;;;;;;;21.77;9.97;;;9.30;1.00;;;;;;6249011;23;20375;-89
2022/10/19 04:58:56;;;;;;;26.90;10.13;;;9.30;1.00;;;;;;6254396;22;20396;-86
2022/10/19 05:01:23;;;;;;;14.70;8.57;;;9.30;1.00;;;;;;6244527;23;20394;-87
2022/10/19 05:03:55;;;;;;;13.33;8.50;;;9.30;1.00;;;;;;6244493;23;20403;-87
2022/10/19 05:06:21;;;;;;;15.67;8.47;;;9.30;1.00;;;;;;6245414;23;20356;-87
2022/10/19 05:08:47;;;;;;;21.17;8.83;;;9.30;1.00;;;;;;6245623;22;20438;-87
2022/10/19 05:11:14;;;;;;;13.20;9.10;;;9.20;1.00;;;;;;6247875;23;20445;-87
2022/10/19 05:13:40;;;;;;;17.87;9.77;;;9.20;1.00;;;;;;6252390;23;20416;-86
2022/10/19 05:16:09;;;;;;;16.50;7.40;;;9.20;1.00;;;;;;6223623;23;20471;-87
2022/10/19 05:18:35;;;;;;;13.87;8.43;;;9.20;1.00;;;;;;6250090;22;20368;-85
2022/10/19 05:21:05;;;;;;;16.00;9.00;;;9.20;1.00;;;;;;6248834;23;20372;-84
2022/10/19 05:24:32;;;;;;;11.27;8.83;;;9.20;1.00;;;;;;6249973;23;20380;-83
2022/10/19 05:27:02;;;;;;;18.13;8.27;;;9.30;1.00;;;;;;6248441;23;20423;-83
2022/10/19 05:35:30;;;;;;;12.43;8.80;;;9.40;1.00;;;;;;6237279;23;20414;-85
2022/10/19 05:44:36;;;;;;;13.10;7.83;;;9.40;1.00;;;;;;6252847;23;20447;-85
2022/10/19 05:47:04;;;;;;;19.13;9.20;;;9.40;1.00;;;;;;6234665;23;20452;-85
2022/10/19 05:49:40;;;;;;;;;;;;;;;;;;;;;
2022/10/19 05:52:54;;;;;;;;;;;;;;;;;;;;;
2022/10/19 05:58:54;;;;;;;21.03;8.83;;;9.40;1.00;;;;;;6226958;22;20378;-85
2022/10/19 06:02:00;;;;;;;19.20;8.00;;;9.40;1.00;;;;;;6226408;23;20380;-85
2022/10/19 06:04:55;;;;;;;;;;;;;;;;;;;;;
2022/10/19 06:11:00;;;;;;;;;;;;;;;;;;;;;
2022/10/19 06:17:17;;;;;;;19.30;8.70;;;9.30;1.00;;;;;;6229907;23;20419;-85
2022/10/19 06:20:18;;;;;;;;;;;;;;;;;;;;;
2022/10/19 06:23:12;;;;;;;15.73;8.10;;;9.40;1.00;;;;;;6252752;23;20376;-84
2022/10/19 06:29:14;;;;;;;12.70;7.30;;;9.50;99.90;;;;;;6224501;22;20376;-85
2022/10/19 06:35:49;;;;;;;14.37;8.60;;;9.70;99.90;;;;;;6230102;23;20392;-86
2022/10/19 06:39:03;;;;;;;;;;;;;;;;;;;;;
2022/10/19 06:51:32;;;;;;;;;;;;;;;;;;;;;
2022/10/19 06:54:28;;;;;;;;;;;;;;;;;;;;;
2022/10/19 06:57:16;;;;;;;25.80;10.30;;;11.80;99.90;;;;;;6247115;23;20438;-85
2022/10/19 06:59:54;;;;;;;;;;;;;;;;;;;;;
2022/10/19 07:05:30;;;;;;;15.73;7.50;;;14.50;99.90;;;;;;6226445;23;20382;-85
2022/10/19 07:08:39;;;;;;;;;;;;;;;;;;;;;
2022/10/19 07:11:36;;;;;;;8.73;6.87;;;17.90;1.00;;;;;;6244022;23;20469;-85
2022/10/19 07:24:06;;;;;;;12.13;6.27;;;27.20;99.90;;;;;;6223143;23;20431;-88
2022/10/19 07:27:22;;;;;;;;;;;;;;;;;;;;;
2022/10/19 07:37:39;;;;;;;;;;;;;;;;;;;;;
2022/10/19 07:40:08;;;;;;;10.67;5.87;;;30.70;99.90;;;;;;6236578;22;20776;-85
2022/10/19 07:42:36;;;;;;;15.17;6.20;;;31.30;99.90;;;;;;6242501;23;20884;-86
2022/10/19 07:45:07;;;;;;;13.53;4.90;;;31.60;99.90;;;;;;6216186;23;20403;-85
2022/10/19 07:47:33;;;;;;;11.37;5.30;;;31.90;99.90;;;;;;6243323;23;20361;-85
2022/10/19 07:50:01;;;;;;;11.53;6.00;;;32.00;99.90;;;;;;6242373;22;20395;-85
2022/10/19 07:52:28;;;;;;;14.00;6.23;;;32.10;99.90;;;;;;6216784;23;20391;-85
2022/10/19 07:54:55;;;;;;;9.00;5.50;;;32.20;99.90;;;;;;6216255;23;20438;-86
2022/10/19 07:57:22;;;;;;;9.10;5.37;;;32.10;99.90;;;;;;6216587;23;20392;-86
2022/10/19 07:59:48;;;;;;;13.00;6.10;;;32.30;99.90;;;;;;6242707;22;20395;-87
2022/10/19 08:02:15;;;;;;;14.27;6.37;;;32.20;99.90;;;;;;6217848;23;20392;-86
2022/10/19 08:14:25;;;;;;;14.63;6.57;;;31.50;99.90;;;;;;6232502;23;20416;-86
2022/10/19 08:24:06;;;;;;;11.53;5.63;;;31.50;99.90;;;;;;6221427;23;20412;-87
2022/10/19 08:27:27;;;;;;;;;;;;;;;;;;;;;
2022/10/19 08:40:14;;;;;;;12.30;6.47;;;32.20;99.90;;;;;;6225783;22;20738;-86
2022/10/19 08:42:55;;;;;;;12.03;6.27;;;31.90;99.90;;;;;;6243335;23;20447;-87
2022/10/19 08:45:57;;;;;;;;;;;;;;;;;;;;;
2022/10/19 08:48:45;;;;;;;;;;;;;;;;;;;;;
2022/10/19 08:55:03;;;;;;;11.27;5.40;;;31.70;99.90;;;;;;6238565;23;20789;-85
2022/10/19 08:57:58;;;;;;;17.00;5.57;;;31.70;99.90;;;;;;6226612;23;20418;-84
2022/10/19 09:00:47;;;;;;;13.40;6.13;;;31.50;99.90;;;;;;6243106;22;20396;-85
2022/10/19 09:03:44;;;;;;;10.80;5.20;;;31.50;99.90;;;;;;6242696;23;20399;-85
2022/10/19 09:06:18;;;;;;;17.33;5.67;;;32.00;99.90;;;;;;6242739;23;20368;-85
2022/10/19 09:08:44;;;;;;;9.77;4.93;;;32.00;99.90;;;;;;6241526;22;20773;-85
2022/10/19 09:11:11;;;;;;;10.83;4.70;;;32.10;99.90;;;;;;6241877;23;20380;-85
2022/10/19 09:13:45;;;;;;;17.13;4.87;;;32.30;99.90;;;;;;6239613;23;20761;-85
2022/10/19 09:16:17;;;;;;;11.33;4.83;;;32.40;99.90;;;;;;6216355;23;20391;-85
2022/10/19 09:18:48;;;;;;;6.20;4.27;;;32.10;99.90;;;;;;6242301;22;20458;-84
2022/10/19 09:21:31;;;;;;;6.80;4.13;;;31.90;99.90;;;;;;6217168;23;20423;-85
2022/10/19 09:24:14;;;;;;;12.00;5.00;;;32.00;99.90;;;;;;6241994;23;20371;-86
2022/10/19 09:26:52;;;;;;;7.10;4.20;;;32.30;99.90;;;;;;6243807;23;20948;-85
2022/10/19 09:29:39;;;;;;;11.20;5.20;;;32.30;99.90;;;;;;6241752;22;20885;-85
2022/10/19 09:32:15;;;;;;;9.73;5.00;;;31.80;99.90;;;;;;6242143;23;20375;-85
2022/10/19 09:34:52;;;;;;;18.43;5.83;;;31.40;99.90;;;;;;6243339;23;20752;-85
2022/10/19 09:37:20;;;;;;;11.47;4.97;;;31.20;99.90;;;;;;6242323;23;20445;-85
2022/10/19 09:39:45;;;;;;;15.73;6.00;;;30.40;99.90;;;;;;6215449;23;20404;-86
2022/10/19 09:42:21;;;;;;;9.30;4.63;;;30.60;99.90;;;;;;6241126;23;20372;-85
2022/10/19 09:44:47;;;;;;;7.90;4.67;;;30.70;99.90;;;;;;6215709;23;20167;-85
2022/10/19 09:47:22;;;;;;;10.70;4.30;;;30.40;99.90;;;;;;6241518;23;20379;-85
2022/10/19 09:49:48;;;;;;;11.20;5.70;;;30.20;99.90;;;;;;6241028;22;20423;-85
2022/10/19 09:52:38;;;;;;;12.73;5.63;;;30.50;99.90;;;;;;6240624;23;20387;-86
2022/10/19 09:55:21;;;;;;;8.40;6.37;;;30.90;99.90;;;;;;6241136;23;20167;-85
2022/10/19 09:57:57;;;;;;;8.70;5.70;;;30.70;99.90;;;;;;6241623;23;20360;-85
2022/10/19 10:00:29;;;;;;;8.23;6.50;;;30.60;99.90;;;;;;6214605;23;20407;-86
2022/10/19 10:02:55;;;;;;;12.60;8.30;;;30.40;99.90;;;;;;6216942;23;20376;-87
2022/10/19 10:05:38;;;;;;;15.27;9.90;;;30.60;99.90;;;;;;6242843;23;20383;-85
2022/10/19 10:08:13;;;;;;;11.27;8.67;;;30.50;99.90;;;;;;6244659;23;20188;-85
2022/10/19 10:10:43;;;;;;;11.00;9.17;;;30.40;99.90;;;;;;6245400;22;20869;-86
2022/10/19 10:13:19;;;;;;;12.03;8.90;;;30.00;99.90;;;;;;6217977;23;20427;-85
2022/10/19 10:15:49;;;;;;;16.00;10.40;;;29.50;99.90;;;;;;6245807;23;20387;-86
2022/10/19 10:18:18;;;;;;;15.83;9.67;;;28.90;99.80;;;;;;6244497;23;20392;-86
2022/10/19 10:21:21;;;;;;;15.70;10.10;;;28.60;99.90;;;;;;6246341;22;20486;-85
2022/10/19 10:23:58;;;;;;;12.90;9.33;;;28.70;99.90;;;;;;6239244;23;20402;-86
2022/10/19 10:26:25;;;;;;;11.27;7.73;;;28.90;99.90;;;;;;6219416;23;20475;-86
2022/10/19 10:28:50;;;;;;;9.10;7.50;;;28.60;99.90;;;;;;6218485;22;20459;-86
2022/10/19 10:31:23;;;;;;;13.90;8.03;;;29.10;99.90;;;;;;6219256;23;20415;-86
2022/10/19 10:33:56;;;;;;;14.60;9.77;;;29.70;99.90;;;;;;6217245;23;20188;-86
2022/10/19 10:36:27;;;;;;;15.20;9.07;;;29.70;99.90;;;;;;6217319;23;20410;-86
2022/10/19 10:39:02;;;;;;;12.20;9.20;;;29.50;99.90;;;;;;6218520;22;20387;-85
2022/10/19 10:41:32;;;;;;;14.07;8.13;;;29.60;99.90;;;;;;6246358;23;20371;-85
2022/10/19 10:44:05;;;;;;;12.60;9.10;;;29.50;99.90;;;;;;6245218;23;20474;-85
2022/10/19 10:46:43;;;;;;;14.00;9.47;;;29.60;99.90;;;;;;6219291;23;20383;-85
2022/10/19 10:49:20;;;;;;;12.80;9.10;;;29.60;99.90;;;;;;6245682;22;20406;-85
2022/10/19 10:51:50;;;;;;;12.60;8.60;;;29.90;99.90;;;;;;6246057;23;20364;-85
2022/10/19 10:54:18;;;;;;;15.53;10.80;;;30.20;99.90;;;;;;6245589;23;20419;-85
2022/10/19 10:57:10;;;;;;;13.20;9.80;;;30.20;99.90;;;;;;6246031;23;20371;-86
2022/10/19 10:59:59;;;;;;;19.60;9.33;;;30.10;99.90;;;;;;6245040;22;20396;-86
2022/10/19 11:02:40;;;;;;;13.53;9.70;;;29.90;99.90;;;;;;6245283;23;20362;-86
2022/10/19 11:05:18;;;;;;;16.20;9.73;;;30.20;99.90;;;;;;6217179;23;20388;-86
2022/10/19 11:07:47;;;;;;;12.20;9.50;;;29.90;99.90;;;;;;6244344;23;20364;-85
2022/10/19 11:10:21;;;;;;;11.20;8.23;;;29.10;99.90;;;;;;6218740;23;20453;-85
2022/10/19 11:13:35;;;;;;;14.40;10.20;;;28.90;99.90;;;;;;6218407;23;20384;-85
2022/10/19 11:16:14;;;;;;;12.33;9.30;;;29.10;99.90;;;;;;6237795;23;20418;-85
2022/10/19 11:18:42;;;;;;;11.83;10.07;;;29.20;99.90;;;;;;6244687;22;20746;-85
2022/10/19 11:21:45;;;;;;;13.57;8.80;;;28.90;99.90;;;;;;6220530;23;20889;-84
2022/10/19 11:24:48;;;;;;;14.83;10.27;;;28.80;99.90;;;;;;6250286;23;20442;-83
2022/10/19 11:27:28;;;;;;;22.20;9.17;;;28.90;99.90;;;;;;6229728;23;20410;-82
2022/10/19 11:30:17;;;;;;;12.90;8.03;;;29.60;99.90;;;;;;6246591;22;20881;-86
2022/10/19 11:33:40;;;;;;;14.20;7.77;;;29.70;99.90;;;;;;6217221;23;20387;-85
2022/10/19 11:36:22;;;;;;;19.23;8.07;;;29.90;99.90;;;;;;6198552;23;20774;-85
2022/10/19 11:39:05;;;;;;;13.53;7.50;;;29.80;99.90;;;;;;6243030;22;20375;-85
2022/10/19 11:41:46;;;;;;;15.33;8.53;;;29.90;99.90;;;;;;6244370;23;20371;-86
2022/10/19 11:44:24;;;;;;;11.63;7.97;;;30.20;99.90;;;;;;6219004;23;20388;-86
2022/10/19 11:47:11;;;;;;;10.23;6.87;;;30.00;99.90;;;;;;6218876;23;20441;-85
2022/10/19 11:50:08;;;;;;;14.20;7.53;;;29.70;99.90;;;;;;6244983;22;20453;-85
2022/10/19 11:52:39;;;;;;;11.60;7.03;;;29.20;99.90;;;;;;6245314;23;20380;-85
2022/10/19 11:55:11;;;;;;;9.53;6.43;;;29.00;99.90;;;;;;6246044;23;20368;-85
2022/10/19 11:58:17;;;;;;;10.00;6.20;;;28.70;99.90;;;;;;6245281;23;20447;-85
2022/10/19 12:01:11;;;;;;;14.07;7.07;;;28.80;99.90;;;;;;6243985;22;20847;-85
2022/10/19 12:03:54;;;;;;;12.43;7.30;;;29.00;99.90;;;;;;6246245;23;20444;-85
2022/10/19 12:06:34;;;;;;;11.60;7.53;;;29.00;99.90;;;;;;6245633;23;20360;-85
2022/10/19 12:09:27;;;;;;;11.20;7.33;;;28.50;99.90;;;;;;6244869;22;20419;-85
2022/10/19 12:12:24;;;;;;;10.03;6.40;;;28.40;99.90;;;;;;6218950;23;20445;-84
2022/10/19 12:15:26;;;;;;;10.10;6.90;;;28.20;99.90;;;;;;6245198;23;20478;-85
2022/10/19 12:17:54;;;;;;;10.73;6.30;;;27.90;99.90;;;;;;6217728;23;20391;-85
2022/10/19 12:21:01;;;;;;;12.23;6.73;;;27.90;99.90;;;;;;6244625;22;20407;-85
2022/10/19 12:23:37;;;;;;;15.93;6.03;;;27.80;99.90;;;;;;6122965;23;20453;-85
2022/10/19 12:26:07;;;;;;;14.63;6.90;;;27.60;99.90;;;;;;6122937;23;20425;-85
2022/10/19 12:28:37;;;;;;;11.50;6.37;;;27.70;99.90;;;;;;6193588;23;20487;-85
2022/10/19 12:31:05;;;;;;;11.77;6.80;;;27.50;99.90;;;;;;6218662;23;20422;-85
2022/10/19 12:33:45;;;;;;;11.17;6.33;;;27.30;99.90;;;;;;6244649;23;20493;-85
2022/10/19 12:36:34;;;;;;;12.23;7.40;;;27.00;99.90;;;;;;6245417;23;20395;-85
2022/10/19 12:39:18;;;;;;;12.77;6.60;;;26.40;99.40;;;;;;6218035;23;20447;-85
2022/10/19 12:41:51;;;;;;;12.17;7.47;;;25.90;99.50;;;;;;6245393;23;20355;-85
2022/10/19 12:44:43;;;;;;;11.60;7.10;;;25.70;99.60;;;;;;6217090;23;20392;-85
2022/10/19 12:47:14;;;;;;;11.83;6.47;;;25.70;99.90;;;;;;6243490;23;20399;-85
2022/10/19 12:49:47;;;;;;;10.50;6.27;;;26.00;99.90;;;;;;6243183;22;20582;-85
2022/10/19 12:52:16;;;;;;;11.03;5.70;;;25.90;99.90;;;;;;6244200;23;20411;-85
2022/10/19 12:54:44;;;;;;;12.87;6.33;;;25.90;99.90;;;;;;6217308;23;20800;-85
2022/10/19 12:57:27;;;;;;;12.37;6.40;;;25.60;99.90;;;;;;6217414;23;20565;-85
2022/10/19 13:00:03;;;;;;;11.70;7.53;;;25.30;99.90;;;;;;6245232;22;20534;-84
2022/10/19 13:02:34;;;;;;;11.30;6.60;;;24.90;99.90;;;;;;6246469;23;20371;-84
2022/10/19 13:05:00;;;;;;;11.43;6.80;;;24.70;99.90;;;;;;6245973;23;20415;-85
2022/10/19 13:07:26;;;;;;;16.07;6.67;;;24.50;99.90;;;;;;6218043;23;20442;-84
2022/10/19 13:10:04;;;;;;;17.93;7.77;;;24.40;99.90;;;;;;6244271;22;20420;-84
2022/10/19 13:12:42;;;;;;;10.97;6.20;;;24.20;99.90;;;;;;6244718;23;20826;-85
2022/10/19 13:15:34;;;;;;;9.23;6.33;;;24.10;99.90;;;;;;6245075;23;20694;-84
2022/10/19 13:18:10;;;;;;;16.83;7.33;;;24.00;99.90;;;;;;6244258;23;20730;-85
2022/10/19 13:20:38;;;;;;;13.60;6.60;;;23.80;99.90;;;;;;6245066;22;20430;-84
2022/10/19 13:23:04;;;;;;;12.30;7.10;;;23.50;99.90;;;;;;6217775;23;20457;-84
2022/10/19 13:25:34;;;;;;;10.30;6.67;;;23.40;99.90;;;;;;6244419;23;20509;-84
2022/10/19 13:28:11;;;;;;;11.80;6.80;;;23.10;99.90;;;;;;6244761;23;20154;-84
2022/10/19 13:30:37;;;;;;;12.00;7.23;;;23.10;99.90;;;;;;6217522;23;20813;-84
2022/10/19 13:33:23;;;;;;;14.00;7.00;;;22.90;99.90;;;;;;6245150;23;20371;-84
2022/10/19 13:36:04;;;;;;;20.77;8.53;;;22.60;99.90;;;;;;6217889;23;20165;-84
2022/10/19 13:38:58;;;;;;;18.70;9.93;;;22.30;99.90;;;;;;6217827;23;20409;-84
2022/10/19 13:41:26;;;;;;;14.43;8.07;;;22.10;99.90;;;;;;6244341;23;20373;-84
2022/10/19 13:44:10;;;;;;;17.70;8.10;;;22.10;99.90;;;;;;6245414;23;20416;-84
2022/10/19 13:46:39;;;;;;;16.97;7.43;;;22.00;99.90;;;;;;6246541;23;20355;-84
2022/10/19 13:49:23;;;;;;;11.87;7.50;;;21.90;99.90;;;;;;6219265;23;20900;-84
2022/10/19 13:52:06;;;;;;;13.53;7.70;;;21.70;99.90;;;;;;6246930;23;20388;-84
2022/10/19 13:55:10;;;;;;;20.80;8.03;;;21.70;99.90;;;;;;6246533;23;20458;-84
2022/10/19 13:57:59;;;;;;;16.13;8.57;;;21.50;99.90;;;;;;6246912;23;20369;-84
2022/10/19 14:01:04;;;;;;;12.37;7.47;;;21.30;99.90;;;;;;6219345;23;20403;-84
2022/10/19 14:03:38;;;;;;;16.47;7.67;;;21.30;99.90;;;;;;6245121;23;20417;-85
2022/10/19 14:06:18;;;;;;;16.07;7.83;;;21.20;99.90;;;;;;6246791;23;20367;-84
2022/10/19 14:09:13;;;;;;;18.97;7.50;;;21.10;99.90;;;;;;6247043;22;20421;-84
2022/10/19 14:11:41;;;;;;;15.77;7.10;;;21.00;99.90;;;;;;6246041;23;20385;-84
2022/10/19 14:14:10;;;;;;;14.47;6.80;;;20.90;99.90;;;;;;6220456;23;20406;-84
2022/10/19 14:16:45;;;;;;;21.77;7.83;;;21.00;99.90;;;;;;6245854;23;20374;-84
2022/10/19 14:19:40;;;;;;;16.03;6.93;;;21.20;99.90;;;;;;6246501;22;20386;-84
2022/10/19 14:22:24;;;;;;;13.93;6.83;;;21.50;99.90;;;;;;6243960;23;20422;-85
2022/10/19 14:24:50;;;;;;;18.67;7.47;;;21.90;99.90;;;;;;6218289;23;20557;-84
2022/10/19 14:27:21;;;;;;;17.50;5.80;;;22.20;99.90;;;;;;6245687;23;20413;-84
2022/10/19 14:29:50;;;;;;;15.83;7.70;;;22.40;99.90;;;;;;6245809;22;20425;-85
2022/10/19 14:32:17;;;;;;;18.50;7.40;;;22.80;99.90;;;;;;6218379;23;20417;-86
2022/10/19 14:34:45;;;;;;;11.00;5.73;;;23.10;99.90;;;;;;6244807;23;20905;-85
2022/10/19 14:37:29;;;;;;;10.03;5.50;;;23.20;99.90;;;;;;6244397;23;20382;-85
2022/10/19 14:40:00;;;;;;;15.67;5.70;;;23.50;99.90;;;;;;6245864;22;20395;-85
2022/10/19 14:42:44;;;;;;;10.97;5.13;;;23.70;99.90;;;;;;6245370;23;20375;-85
2022/10/19 14:45:16;;;;;;;14.20;5.13;;;23.60;99.90;;;;;;6246285;23;20364;-85
2022/10/19 14:47:55;;;;;;;10.03;5.80;;;23.50;99.90;;;;;;6245329;23;20358;-85
2022/10/19 14:50:43;;;;;;;7.50;5.00;;;23.40;99.90;;;;;;6244388;22;20394;-85
2022/10/19 14:53:14;;;;;;;11.97;6.23;;;23.30;99.90;;;;;;6244733;23;20390;-85
2022/10/19 14:55:41;;;;;;;11.83;5.80;;;22.90;99.90;;;;;;6246171;23;20854;-85
2022/10/19 14:58:14;;;;;;;8.60;5.33;;;22.60;99.90;;;;;;6245221;23;20369;-85
2022/10/19 15:00:40;;;;;;;11.30;5.40;;;22.40;99.90;;;;;;6246267;22;20751;-85
2022/10/19 15:03:11;;;;;;;8.17;4.77;;;22.20;99.90;;;;;;6246541;23;20430;-85
2022/10/19 15:05:41;;;;;;;16.73;5.63;;;22.00;99.90;;;;;;6245825;23;20363;-85
2022/10/19 15:08:30;;;;;;;11.37;5.03;;;21.80;99.90;;;;;;6223861;23;20875;-85
2022/10/19 15:10:56;;;;;;;12.77;5.77;;;21.60;99.90;;;;;;6195684;23;20414;-86
2022/10/19 15:13:28;;;;;;;11.60;7.63;;;21.40;99.90;;;;;;6253680;23;20434;-85
2022/10/19 15:15:54;;;;;;;10.70;5.33;;;21.30;99.90;;;;;;6253454;23;20380;-85
2022/10/19 15:18:25;;;;;;;8.50;5.00;;;21.30;99.90;;;;;;6254858;23;20382;-86
2022/10/19 15:21:16;;;;;;;10.27;5.40;;;21.00;99.90;;;;;;6251421;22;20441;-86
2022/10/19 15:23:45;;;;;;;10.57;4.70;;;20.70;99.90;;;;;;6221332;23;20429;-85
2022/10/19 15:26:27;;;;;;;10.83;5.57;;;20.40;99.90;;;;;;6251422;23;20838;-85
2022/10/19 15:28:54;;;;;;;9.70;6.53;;;20.10;99.90;;;;;;6254380;22;20380;-85
2022/10/19 15:31:28;;;;;;;12.30;8.67;;;19.90;99.90;;;;;;6252784;23;20378;-84
2022/10/19 15:33:58;;;;;;;17.70;7.30;;;19.60;99.90;;;;;;6249438;23;20428;-84
2022/10/19 15:36:25;;;;;;;10.53;5.20;;;19.30;99.90;;;;;;6250755;23;20382;-87
2022/10/19 15:38:56;;;;;;;11.00;7.27;;;19.10;99.90;;;;;;6220222;22;20389;-84
2022/10/19 15:41:28;;;;;;;16.23;6.90;;;18.90;99.90;;;;;;6219383;23;20387;-84
2022/10/19 15:43:59;;;;;;;12.40;5.90;;;18.70;99.90;;;;;;6246711;23;20469;-84
2022/10/19 15:46:30;;;;;;;16.37;5.97;;;18.50;99.90;;;;;;6220292;23;20407;-84
2022/10/19 15:49:16;;;;;;;13.17;6.30;;;18.40;99.90;;;;;;6245880;22;20474;-84
2022/10/19 15:51:48;;;;;;;11.07;6.13;;;18.20;99.90;;;;;;6225410;23;20383;-84
2022/10/19 15:54:16;;;;;;;10.20;5.60;;;18.10;99.90;;;;;;6246525;23;20375;-84
2022/10/19 15:56:43;;;;;;;11.13;5.73;;;18.10;99.90;;;;;;6245560;23;20375;-84
2022/10/19 15:59:18;;;;;;;8.60;5.20;;;18.00;99.90;;;;;;6245505;22;20715;-84